Time;durP1;ratioP1;P1;durP2;ratioP2;P2;SDS_P1;SDS_P2;PMS_P1;PMS_P2;Temp;Humidity;BMP_temperature;BMP_pressure;BME280_temperature;BME280_humidity;BME280_pressure;Samples;Min_cycle;Max_cycle;Signal;HPM_P1;HPM_P2
2022/12/22 03:25:54;;;;;;;2.00;0.50;;;11.10;99.90;;;;;;7393201;19;20550;-73
2022/12/22 03:28:23;;;;;;;0.63;0.63;;;11.00;99.90;;;;;;7394541;19;20166;-74
2022/12/22 03:31:01;;;;;;;0.90;0.50;;;11.00;99.90;;;;;;7391774;19;20143;-74
2022/12/22 03:33:28;;;;;;;0.70;0.60;;;11.00;99.90;;;;;;7390691;19;20150;-74
2022/12/22 03:35:53;;;;;;;1.00;0.60;;;11.00;99.90;;;;;;7392758;19;20575;-72
2022/12/22 03:38:19;;;;;;;1.10;0.60;;;11.00;99.90;;;;;;7391937;19;20146;-73
2022/12/22 03:40:45;;;;;;;1.10;0.73;;;11.00;99.90;;;;;;7393264;19;20146;-73
2022/12/22 03:48:43;;;;;;;1.17;0.60;;;11.20;99.90;;;;;;7398260;19;20578;-72
2022/12/22 03:51:09;;;;;;;0.80;0.60;;;11.10;99.90;;;;;;7399402;19;20134;-74
2022/12/22 03:53:35;;;;;;;0.80;0.60;;;11.20;99.90;;;;;;7398682;19;20150;-73
2022/12/22 03:56:01;;;;;;;0.97;0.70;;;11.20;99.90;;;;;;7398246;19;20142;-73
2022/12/22 03:58:27;;;;;;;1.03;0.60;;;11.20;99.90;;;;;;7401924;19;20127;-73
2022/12/22 04:01:06;;;;;;;1.30;0.50;;;11.30;99.90;;;;;;7398162;19;20153;-73
2022/12/22 04:03:32;;;;;;;0.80;0.60;;;11.20;99.90;;;;;;7396198;19;20147;-73
2022/12/22 04:05:58;;;;;;;1.30;0.70;;;11.20;99.90;;;;;;7397442;19;20140;-72
2022/12/22 04:08:24;;;;;;;3.37;0.83;;;11.20;99.90;;;;;;7401230;19;20142;-72
2022/12/22 04:13:34;;;;;;;0.93;0.70;;;11.10;99.90;;;;;;7399189;19;20127;-73
2022/12/22 04:15:59;;;;;;;0.53;0.53;;;11.30;99.90;;;;;;7398154;19;20213;-73
2022/12/22 04:18:25;;;;;;;1.00;0.50;;;11.30;99.90;;;;;;7399814;19;20600;-74
2022/12/22 04:20:51;;;;;;;0.40;0.40;;;11.20;99.90;;;;;;7400823;19;20126;-73
2022/12/22 04:23:16;;;;;;;1.20;0.47;;;11.20;99.90;;;;;;7399198;19;20146;-73
2022/12/22 04:25:42;;;;;;;1.07;0.60;;;11.30;99.90;;;;;;7392861;19;20515;-72
2022/12/22 04:28:08;;;;;;;1.07;0.73;;;11.30;99.90;;;;;;7400227;19;20218;-72
2022/12/22 04:30:34;;;;;;;1.07;0.50;;;11.50;99.90;;;;;;7398051;19;20134;-73
2022/12/22 04:32:59;;;;;;;2.57;0.60;;;11.40;99.90;;;;;;7397609;19;20186;-74
2022/12/22 04:35:25;;;;;;;0.77;0.50;;;11.50;99.90;;;;;;7396032;19;20138;-74
2022/12/22 04:37:52;;;;;;;0.50;0.50;;;11.60;99.90;;;;;;7397337;19;20599;-74
2022/12/22 04:40:18;;;;;;;0.53;0.47;;;11.50;99.90;;;;;;7398840;19;20158;-72
2022/12/22 04:42:44;;;;;;;1.00;0.63;;;11.40;99.90;;;;;;7400121;19;20131;-73
2022/12/22 04:45:10;;;;;;;1.00;0.60;;;11.30;99.90;;;;;;7398432;19;20134;-73
2022/12/22 04:47:35;;;;;;;1.17;0.70;;;11.30;99.90;;;;;;7396443;19;20142;-74
2022/12/22 04:50:01;;;;;;;3.30;0.87;;;11.40;99.90;;;;;;7398825;19;20149;-73
2022/12/22 04:52:27;;;;;;;1.37;0.70;;;11.40;99.90;;;;;;7396875;19;20131;-73
2022/12/22 04:54:53;;;;;;;0.90;0.60;;;11.40;99.90;;;;;;7397923;19;20147;-73
2022/12/22 04:57:20;;;;;;;0.93;0.57;;;11.30;99.90;;;;;;7396730;19;20138;-75
2022/12/22 04:59:46;;;;;;;1.83;1.03;;;11.40;99.90;;;;;;7396799;19;20619;-74
2022/12/22 05:02:12;;;;;;;1.03;0.87;;;11.40;99.90;;;;;;7396572;19;20143;-73
2022/12/22 05:04:37;;;;;;;1.43;0.70;;;11.40;99.90;;;;;;7398281;19;20169;-73
2022/12/22 05:07:04;;;;;;;1.43;0.70;;;11.40;99.90;;;;;;7394919;19;20139;-73
2022/12/22 05:09:30;;;;;;;0.80;0.70;;;11.40;99.90;;;;;;7395137;19;20181;-74
2022/12/22 05:11:55;;;;;;;0.47;0.47;;;11.50;99.90;;;;;;7395679;19;20498;-74
2022/12/22 05:14:21;;;;;;;2.00;0.87;;;11.40;99.90;;;;;;7396141;19;20626;-75
2022/12/22 05:16:47;;;;;;;3.55;0.60;;;11.40;99.90;;;;;;7395514;19;20135;-73
2022/12/22 05:19:12;;;;;;;2.43;0.80;;;11.40;99.90;;;;;;7394387;19;20143;-74
2022/12/22 05:21:38;;;;;;;0.77;0.70;;;11.50;99.90;;;;;;7396035;19;20138;-73
2022/12/22 05:24:04;;;;;;;0.97;0.67;;;11.40;99.90;;;;;;7394535;19;20486;-73
2022/12/22 05:26:30;;;;;;;0.87;0.63;;;11.50;99.90;;;;;;7393507;19;20601;-74
2022/12/22 05:28:56;;;;;;;1.10;0.70;;;11.40;99.90;;;;;;7392267;19;20163;-74
2022/12/22 05:31:23;;;;;;;1.63;0.60;;;11.40;99.90;;;;;;7394942;19;20142;-74
2022/12/22 05:33:49;;;;;;;2.97;0.70;;;11.50;99.90;;;;;;7395376;19;20594;-73
2022/12/22 05:36:15;;;;;;;3.07;0.73;;;11.40;99.90;;;;;;7395999;19;20151;-74
2022/12/22 05:38:43;;;;;;;2.70;0.97;;;11.40;99.90;;;;;;7394908;19;20560;-75
2022/12/22 05:41:09;;;;;;;2.87;0.60;;;11.40;99.90;;;;;;7396291;19;20142;-73
2022/12/22 05:43:35;;;;;;;2.10;0.63;;;11.40;99.90;;;;;;7392956;19;20155;-72
2022/12/22 05:46:03;;;;;;;3.80;0.70;;;11.50;99.90;;;;;;7394024;19;20498;-73
2022/12/22 05:48:29;;;;;;;3.60;0.70;;;11.50;99.90;;;;;;7395515;19;20134;-73
2022/12/22 05:50:55;;;;;;;1.63;0.90;;;11.50;99.90;;;;;;7396289;19;20385;-73
2022/12/22 05:53:20;;;;;;;1.63;0.60;;;11.70;99.90;;;;;;7389775;19;20165;-73
2022/12/22 05:55:46;;;;;;;2.50;0.80;;;11.60;99.90;;;;;;7395798;19;20141;-73
2022/12/22 05:58:12;;;;;;;3.87;0.97;;;11.70;99.90;;;;;;7392545;19;20504;-74
2022/12/22 06:00:38;;;;;;;3.03;0.80;;;11.60;99.90;;;;;;7393521;19;20141;-72
2022/12/22 06:03:04;;;;;;;2.73;1.00;;;11.50;99.90;;;;;;7393131;19;20138;-73
2022/12/22 06:05:32;;;;;;;3.43;0.80;;;11.30;99.90;;;;;;7393116;19;20570;-72
2022/12/22 06:07:58;;;;;;;3.63;0.80;;;11.30;99.90;;;;;;7394265;19;20135;-73
2022/12/22 06:10:24;;;;;;;3.37;0.77;;;11.20;99.90;;;;;;7396220;19;20137;-73
2022/12/22 06:12:50;;;;;;;1.90;0.73;;;11.20;99.90;;;;;;7393410;19;20134;-74
2022/12/22 06:15:15;;;;;;;13.00;7.43;;;11.20;99.90;;;;;;7394311;19;20134;-72
2022/12/22 06:17:41;;;;;;;3.70;1.20;;;11.20;99.90;;;;;;7394005;19;20154;-72
2022/12/22 06:20:08;;;;;;;1.60;1.00;;;11.10;99.90;;;;;;7393992;19;20476;-73
2022/12/22 06:22:34;;;;;;;1.43;0.70;;;11.20;99.90;;;;;;7391815;19;20135;-73
2022/12/22 06:24:59;;;;;;;2.10;0.90;;;11.20;99.90;;;;;;7393696;19;20134;-73
2022/12/22 06:27:25;;;;;;;3.30;1.00;;;11.10;99.90;;;;;;7391929;19;20252;-73
2022/12/22 06:29:51;;;;;;;2.37;1.20;;;11.20;99.90;;;;;;7392664;19;20157;-74
2022/12/22 06:32:17;;;;;;;2.30;0.80;;;11.10;99.90;;;;;;7392069;19;20134;-73
2022/12/22 06:34:43;;;;;;;2.43;0.83;;;11.20;99.90;;;;;;7392798;19;20475;-72
2022/12/22 06:37:08;;;;;;;1.30;0.97;;;11.10;99.90;;;;;;7387155;19;20139;-73
2022/12/22 06:39:34;;;;;;;2.83;0.87;;;11.10;99.90;;;;;;7389434;19;20131;-73
2022/12/22 06:44:45;;;;;;;4.77;1.40;;;11.10;99.90;;;;;;7392476;19;20571;-72
2022/12/22 06:47:10;;;;;;;4.13;1.60;;;11.20;99.90;;;;;;7387867;19;20177;-73
2022/12/22 06:49:36;;;;;;;3.13;1.20;;;11.20;99.90;;;;;;7390576;19;20153;-73
2022/12/22 06:52:05;;;;;;;2.70;1.20;;;11.20;99.90;;;;;;7385805;19;20126;-72
2022/12/22 06:54:31;;;;;;;3.97;1.23;;;11.30;99.90;;;;;;7389411;19;20131;-74
2022/12/22 06:56:57;;;;;;;3.03;0.97;;;11.30;99.90;;;;;;7386781;19;20507;-73
2022/12/22 06:59:22;;;;;;;5.77;1.30;;;11.30;99.90;;;;;;7392936;19;20148;-73
2022/12/22 07:01:49;;;;;;;5.00;1.17;;;11.40;99.90;;;;;;7389994;19;20452;-73
2022/12/22 07:04:19;;;;;;;2.30;1.07;;;11.40;99.90;;;;;;7390166;19;20162;-72
2022/12/22 07:06:48;;;;;;;2.53;0.80;;;11.50;99.90;;;;;;7389364;19;20131;-72
2022/12/22 07:09:14;;;;;;;4.90;1.13;;;11.50;99.90;;;;;;7389458;19;20131;-72
2022/12/22 07:11:40;;;;;;;3.50;1.23;;;11.60;99.90;;;;;;7390284;19;20149;-72
2022/12/22 07:14:05;;;;;;;2.67;0.90;;;11.50;99.90;;;;;;7393481;19;20151;-72
2022/12/22 07:16:31;;;;;;;1.90;0.67;;;11.70;99.90;;;;;;7392406;19;20158;-73
2022/12/22 07:18:57;;;;;;;4.50;1.23;;;11.60;99.90;;;;;;7394028;19;20147;-72
2022/12/22 07:21:22;;;;;;;3.87;1.40;;;11.60;99.90;;;;;;7391706;19;20603;-71
2022/12/22 07:23:48;;;;;;;4.83;1.90;;;11.60;99.90;;;;;;7388500;19;20161;-70
2022/12/22 07:26:14;;;;;;;3.80;1.50;;;11.70;99.90;;;;;;7389327;19;20155;-70
2022/12/22 07:28:40;;;;;;;3.63;1.13;;;11.70;99.90;;;;;;7390016;19;20483;-69
2022/12/22 07:31:08;;;;;;;3.93;1.57;;;11.70;99.90;;;;;;7382653;19;20211;-70
2022/12/22 07:33:34;;;;;;;3.93;1.40;;;11.80;99.90;;;;;;7384119;19;20527;-70
2022/12/22 07:36:02;;;;;;;4.43;1.10;;;11.80;99.90;;;;;;7387995;19;20147;-70
2022/12/22 07:38:30;;;;;;;3.47;1.10;;;11.70;99.90;;;;;;7387781;19;20138;-69
2022/12/22 07:40:58;;;;;;;8.93;2.70;;;11.70;99.90;;;;;;7391151;19;20154;-70
2022/12/22 07:43:23;;;;;;;4.40;1.30;;;11.70;99.90;;;;;;7390772;19;20483;-69
2022/12/22 07:45:49;;;;;;;7.63;3.80;;;11.70;99.90;;;;;;7390509;19;20143;-70
2022/12/22 07:51:03;;;;;;;4.83;1.00;;;11.70;99.90;;;;;;7393135;19;20134;-70
2022/12/22 07:53:30;;;;;;;4.90;1.90;;;11.70;99.90;;;;;;7386199;19;20583;-70
2022/12/22 07:56:00;;;;;;;3.47;1.30;;;11.80;99.90;;;;;;7387159;19;20146;-69
2022/12/22 07:58:25;;;;;;;4.33;1.20;;;11.80;99.90;;;;;;7387321;19;20468;-71
2022/12/22 08:00:56;;;;;;;2.77;1.40;;;11.80;99.90;;;;;;7384760;19;20162;-69
2022/12/22 08:03:22;;;;;;;7.05;1.23;;;11.70;99.90;;;;;;7386128;19;20150;-70
2022/12/22 08:05:48;;;;;;;5.27;1.57;;;11.70;99.90;;;;;;7387814;19;22364;-69
2022/12/22 08:08:14;;;;;;;5.17;1.53;;;11.80;99.90;;;;;;7387027;19;20146;-70
2022/12/22 08:10:39;;;;;;;4.83;1.33;;;11.80;99.90;;;;;;7388749;19;20491;-70
2022/12/22 08:13:05;;;;;;;2.27;1.17;;;11.70;99.90;;;;;;7383813;19;20545;-72
2022/12/22 08:15:31;;;;;;;2.50;1.10;;;11.60;99.90;;;;;;7386038;19;20146;-75
2022/12/22 08:17:56;;;;;;;3.77;1.30;;;11.60;99.90;;;;;;7386406;19;20135;-72
2022/12/22 08:20:22;;;;;;;4.70;1.30;;;11.50;99.90;;;;;;7386224;19;20139;-74
2022/12/22 08:22:48;;;;;;;3.63;1.17;;;11.40;99.90;;;;;;7386709;19;20151;-71
2022/12/22 08:25:14;;;;;;;3.43;1.00;;;11.40;99.90;;;;;;7387394;19;20135;-74
2022/12/22 08:27:50;;;;;;;3.87;1.53;;;11.40;99.90;;;;;;7381890;19;20139;-73
2022/12/22 08:30:16;;;;;;;4.30;2.07;;;11.50;99.90;;;;;;7390672;19;20158;-73
2022/12/22 08:32:47;;;;;;;6.07;2.07;;;11.50;99.90;;;;;;7386188;19;20131;-73
2022/12/22 08:35:13;;;;;;;4.33;1.80;;;11.40;99.90;;;;;;7395266;19;20155;-73
2022/12/22 08:37:42;;;;;;;4.07;1.02;;;11.40;99.90;;;;;;7395762;19;20135;-73
2022/12/22 08:40:30;;;;;;;6.40;1.67;;;11.40;99.90;;;;;;7396451;19;20468;-73
2022/12/22 08:43:01;;;;;;;6.37;1.47;;;11.50;99.90;;;;;;7392936;19;20158;-78
2022/12/22 08:45:27;;;;;;;6.83;1.60;;;11.50;99.90;;;;;;7397133;19;20130;-75
2022/12/22 08:47:53;;;;;;;3.28;1.83;;;11.50;99.90;;;;;;7392859;19;20183;-75
2022/12/22 08:50:19;;;;;;;3.90;2.30;;;11.60;99.90;;;;;;7398451;19;20155;-75
2022/12/22 08:52:45;;;;;;;3.10;1.38;;;11.70;99.90;;;;;;7396511;19;20588;-76
2022/12/22 08:55:10;;;;;;;4.43;1.50;;;11.60;99.90;;;;;;7397364;19;20143;-77
2022/12/22 08:57:36;;;;;;;3.00;1.25;;;11.60;99.90;;;;;;7393522;19;20134;-75
2022/12/22 09:00:05;;;;;;;6.60;1.70;;;11.70;99.90;;;;;;7394114;19;20143;-77
2022/12/22 09:02:32;;;;;;;5.93;1.85;;;11.70;99.90;;;;;;7394225;19;20143;-77
2022/12/22 09:04:58;;;;;;;4.97;1.43;;;11.70;99.90;;;;;;7393012;19;20206;-75
2022/12/22 09:07:23;;;;;;;5.90;2.20;;;11.70;99.90;;;;;;7394134;19;20138;-76
2022/12/22 09:09:49;;;;;;;5.20;1.88;;;11.60;99.90;;;;;;7394911;19;20135;-75
2022/12/22 09:12:15;;;;;;;4.07;1.73;;;11.70;99.90;;;;;;7393564;19;20201;-75
2022/12/22 09:14:41;;;;;;;3.50;1.40;;;11.70;99.90;;;;;;7389953;19;20142;-74
2022/12/22 09:17:07;;;;;;;2.50;1.20;;;11.70;99.90;;;;;;7391439;19;20133;-76
2022/12/22 09:19:33;;;;;;;2.97;1.43;;;11.80;99.90;;;;;;7390332;19;20127;-75
2022/12/22 09:21:59;;;;;;;5.38;1.80;;;11.90;99.90;;;;;;7390164;19;20232;-76
2022/12/22 09:24:24;;;;;;;5.07;1.57;;;11.90;99.90;;;;;;7392660;19;20141;-78
2022/12/22 09:26:50;;;;;;;4.15;1.25;;;11.90;99.90;;;;;;7393078;19;20139;-77
2022/12/22 09:29:16;;;;;;;6.50;1.50;;;11.80;99.90;;;;;;7393455;19;20163;-76
2022/12/22 09:31:42;;;;;;;9.17;1.60;;;11.70;99.90;;;;;;7394423;19;20569;-80
2022/12/22 09:34:09;;;;;;;3.30;1.33;;;11.70;99.90;;;;;;7392807;19;20130;-78
2022/12/22 09:36:34;;;;;;;5.93;1.40;;;11.70;99.90;;;;;;7394326;19;20131;-78
2022/12/22 09:39:05;;;;;;;3.60;1.33;;;11.70;99.90;;;;;;7388741;19;20507;-77
2022/12/22 09:41:49;;;;;;;8.13;1.90;;;11.80;99.90;;;;;;7393076;19;20150;-77
2022/12/22 09:44:27;;;;;;;3.40;1.10;;;11.80;99.90;;;;;;7394543;19;20139;-75
2022/12/22 09:46:57;;;;;;;5.57;1.57;;;11.60;99.90;;;;;;7388987;19;20163;-79
2022/12/22 09:49:23;;;;;;;17.83;10.73;;;11.70;99.90;;;;;;7390588;19;20183;-77
2022/12/22 09:51:55;;;;;;;4.18;1.77;;;11.50;99.90;;;;;;7388728;19;20194;-78
2022/12/22 09:54:23;;;;;;;6.47;2.27;;;11.40;99.90;;;;;;7399484;19;20157;-77
2022/12/22 09:56:48;;;;;;;3.93;2.63;;;11.40;99.90;;;;;;7390347;19;20138;-77
2022/12/22 09:59:18;;;;;;;5.40;1.53;;;11.40;99.90;;;;;;7387774;19;20122;-76
2022/12/22 10:02:09;;;;;;;3.08;0.90;;;11.30;99.90;;;;;;7389607;19;20146;-76
2022/12/22 10:05:29;;;;;;;6.77;1.83;;;11.40;99.90;;;;;;7392251;19;20150;-77
2022/12/22 10:08:01;;;;;;;5.87;1.50;;;11.50;99.90;;;;;;7391097;19;20167;-77
2022/12/22 10:10:31;;;;;;;4.97;1.50;;;11.40;99.90;;;;;;7392504;19;20606;-77
2022/12/22 10:13:02;;;;;;;5.67;1.33;;;11.40;99.90;;;;;;7392807;19;20154;-77
2022/12/22 10:15:36;;;;;;;3.30;1.33;;;11.40;99.90;;;;;;7395452;19;20131;-77
2022/12/22 10:18:17;;;;;;;6.73;3.40;;;11.50;99.90;;;;;;7393600;19;20210;-77
2022/12/22 10:21:08;;;;;;;4.00;1.20;;;11.60;99.90;;;;;;7395222;19;20594;-76
2022/12/22 10:23:46;;;;;;;2.13;1.07;;;11.60;99.90;;;;;;7393226;19;20142;-77
2022/12/22 10:26:28;;;;;;;3.23;1.00;;;11.60;99.90;;;;;;7391400;19;20171;-76
2022/12/22 10:29:16;;;;;;;2.03;1.00;;;11.60;99.90;;;;;;7392945;19;20491;-77
2022/12/22 10:32:09;;;;;;;5.23;1.30;;;11.80;99.90;;;;;;7393139;19;20158;-76
2022/12/22 10:34:35;;;;;;;2.93;0.93;;;11.70;99.90;;;;;;7391818;19;20610;-76
2022/12/22 10:37:03;;;;;;;3.30;1.20;;;11.70;99.90;;;;;;7392855;19;20496;-75
2022/12/22 10:39:33;;;;;;;3.43;1.23;;;11.70;99.90;;;;;;7391812;19;20154;-78
2022/12/22 10:42:12;;;;;;;4.67;1.40;;;11.80;99.90;;;;;;7391856;19;20482;-74
2022/12/22 10:44:42;;;;;;;3.97;1.20;;;11.80;99.90;;;;;;7389762;19;20205;-75
2022/12/22 10:47:15;;;;;;;3.70;1.57;;;11.80;99.90;;;;;;7382975;19;20134;-76
2022/12/22 10:49:44;;;;;;;2.10;1.20;;;11.80;99.90;;;;;;7390885;19;20143;-76
2022/12/22 10:52:19;;;;;;;2.57;1.07;;;11.70;99.90;;;;;;7381287;19;20134;-73
2022/12/22 10:54:46;;;;;;;2.20;0.87;;;11.80;99.90;;;;;;7388195;19;20134;-76
2022/12/22 10:57:17;;;;;;;3.20;1.37;;;11.70;99.90;;;;;;7388572;19;21977;-76
2022/12/22 10:59:53;;;;;;;3.03;1.60;;;11.60;99.90;;;;;;7390751;19;20161;-76
2022/12/22 11:02:19;;;;;;;3.50;1.13;;;11.60;99.90;;;;;;7392258;19;20146;-75
2022/12/22 11:04:46;;;;;;;3.90;1.10;;;11.60;99.90;;;;;;7389615;19;20185;-76
2022/12/22 11:07:11;;;;;;;3.20;1.27;;;11.60;99.90;;;;;;7389679;19;20634;-74
2022/12/22 11:09:37;;;;;;;4.00;1.33;;;11.50;99.90;;;;;;7389677;19;20134;-76
2022/12/22 11:12:25;;;;;;;3.73;1.57;;;11.50;99.90;;;;;;7389015;19;20500;-75
2022/12/22 11:15:09;;;;;;;4.17;1.00;;;11.60;99.90;;;;;;7389227;19;20153;-76
2022/12/22 11:18:08;;;;;;;2.40;1.07;;;11.80;99.90;;;;;;7389615;19;20170;-75
2022/12/22 11:20:59;;;;;;;5.73;2.63;;;11.80;99.90;;;;;;7391645;19;20134;-75
2022/12/22 11:24:02;;;;;;;4.77;1.30;;;11.80;99.90;;;;;;7389818;19;20158;-75
2022/12/22 11:26:42;;;;;;;13.73;6.93;;;11.90;99.90;;;;;;7390725;19;20130;-75
2022/12/22 11:29:18;;;;;;;2.73;1.17;;;12.00;99.90;;;;;;7390674;19;20134;-74
2022/12/22 11:31:50;;;;;;;4.87;1.43;;;12.00;99.90;;;;;;7389244;19;20872;-75
2022/12/22 11:34:37;;;;;;;1.97;0.93;;;12.20;99.90;;;;;;7390164;19;20150;-74
2022/12/22 11:37:55;;;;;;;5.60;2.30;;;12.20;99.90;;;;;;7391735;19;20150;-74
2022/12/22 11:40:39;;;;;;;6.00;2.30;;;12.10;99.90;;;;;;7388726;19;20138;-75
2022/12/22 11:43:23;;;;;;;4.13;1.30;;;12.10;99.90;;;;;;7386086;19;20122;-76
2022/12/22 11:46:09;;;;;;;2.13;1.03;;;12.10;99.90;;;;;;7389600;19;20235;-75
2022/12/22 11:48:38;;;;;;;2.03;0.90;;;12.20;99.90;;;;;;7392722;19;20244;-75
2022/12/22 11:51:21;;;;;;;3.40;1.13;;;12.40;99.90;;;;;;7389186;19;20139;-77
2022/12/22 11:54:05;;;;;;;2.77;1.30;;;12.40;99.90;;;;;;7390680;19;20162;-74
2022/12/22 11:56:39;;;;;;;1.95;1.02;;;12.50;99.90;;;;;;7390007;19;20162;-74
2022/12/22 11:59:38;;;;;;;1.90;0.97;;;12.50;99.90;;;;;;7389891;19;20730;-75
2022/12/22 12:02:25;;;;;;;2.63;0.90;;;12.50;99.90;;;;;;7385110;19;20155;-75
2022/12/22 12:05:10;;;;;;;1.97;1.00;;;12.60;99.90;;;;;;7390702;19;20172;-74
2022/12/22 12:07:44;;;;;;;1.57;0.83;;;12.90;99.90;;;;;;7387651;19;20510;-74
2022/12/22 12:10:15;;;;;;;6.03;1.15;;;12.80;99.90;;;;;;7398687;19;20151;-76
2022/12/22 12:13:15;;;;;;;5.22;1.20;;;12.80;99.90;;;;;;7398043;19;20131;-74
2022/12/22 12:15:51;;;;;;;1.57;0.90;;;12.80;99.90;;;;;;7397798;19;20139;-75
2022/12/22 12:18:38;;;;;;;3.40;1.10;;;12.80;99.90;;;;;;7397704;19;20627;-75
2022/12/22 12:21:07;;;;;;;2.50;0.80;;;12.90;99.90;;;;;;7396181;19;20597;-76
2022/12/22 12:23:54;;;;;;;4.28;0.80;;;13.00;99.90;;;;;;7397082;19;20139;-76
2022/12/22 12:26:35;;;;;;;2.33;1.17;;;13.00;99.90;;;;;;7393592;19;20146;-73
2022/12/22 12:29:10;;;;;;;5.13;3.00;;;13.10;99.90;;;;;;7395768;19;20139;-74
2022/12/22 12:32:12;;;;;;;1.65;0.80;;;13.20;99.90;;;;;;7396107;19;20514;-74
2022/12/22 12:34:44;;;;;;;2.33;0.88;;;13.10;99.90;;;;;;7396928;19;20523;-75
2022/12/22 12:37:20;;;;;;;3.63;1.48;;;13.00;99.90;;;;;;7397230;19;20138;-75
2022/12/22 12:40:05;;;;;;;3.38;1.08;;;13.00;99.90;;;;;;7397436;19;20151;-74
2022/12/22 12:42:41;;;;;;;3.27;1.03;;;12.90;99.90;;;;;;7397760;19;20146;-75
2022/12/22 12:45:45;;;;;;;1.70;0.80;;;12.80;99.90;;;;;;7397082;19;20142;-74
2022/12/22 12:48:20;;;;;;;2.58;0.95;;;12.90;99.90;;;;;;7395464;19;20150;-76
2022/12/22 12:50:56;;;;;;;2.35;1.25;;;12.80;99.90;;;;;;7395962;19;20153;-75
2022/12/22 12:53:24;;;;;;;2.53;1.20;;;12.80;99.90;;;;;;7395943;19;20619;-74
2022/12/22 12:55:51;;;;;;;2.63;1.23;;;12.70;99.90;;;;;;7395293;19;20141;-75
2022/12/22 12:58:36;;;;;;;4.18;1.08;;;12.60;99.90;;;;;;7403836;19;20142;-73
2022/12/22 13:01:25;;;;;;;2.88;0.70;;;12.80;99.90;;;;;;7397941;19;20137;-76
2022/12/22 13:03:51;;;;;;;2.78;1.10;;;12.80;99.90;;;;;;7394352;19;20178;-72
2022/12/22 13:06:45;;;;;;;1.65;0.73;;;12.70;99.90;;;;;;7394561;19;20161;-72
2022/12/22 13:09:20;;;;;;;1.67;0.80;;;12.70;99.90;;;;;;7397517;19;20144;-74
2022/12/22 13:11:47;;;;;;;1.47;0.60;;;12.80;99.90;;;;;;7395857;19;20157;-71
2022/12/22 13:14:51;;;;;;;2.10;0.80;;;12.70;99.90;;;;;;7391838;19;20135;-71
2022/12/22 13:17:35;;;;;;;1.25;0.68;;;12.80;99.90;;;;;;7389808;19;20643;-73
2022/12/22 13:20:02;;;;;;;2.33;1.37;;;12.80;99.90;;;;;;7397212;19;20155;-72
2022/12/22 13:22:28;;;;;;;1.03;0.80;;;12.80;99.90;;;;;;7394834;19;20198;-71
2022/12/22 13:24:55;;;;;;;2.30;1.13;;;12.90;99.90;;;;;;7396723;19;20254;-72
2022/12/22 13:27:21;;;;;;;5.20;2.55;;;12.80;99.90;;;;;;7389742;19;20146;-72
2022/12/22 13:29:50;;;;;;;2.60;1.48;;;12.80;99.90;;;;;;7392042;19;20138;-71
2022/12/22 13:32:26;;;;;;;2.00;0.80;;;12.80;99.90;;;;;;7392701;19;20472;-74
2022/12/22 13:35:03;;;;;;;1.08;0.82;;;12.80;99.90;;;;;;7393290;19;20609;-74
2022/12/22 13:37:29;;;;;;;2.50;0.73;;;12.70;99.90;;;;;;7394099;19;20545;-74
2022/12/22 13:40:17;;;;;;;1.52;0.73;;;12.90;99.90;;;;;;7396759;19;20130;-74
2022/12/22 13:42:59;;;;;;;1.45;0.68;;;12.80;99.90;;;;;;7399657;19;20563;-79
2022/12/22 13:46:01;;;;;;;2.20;0.90;;;12.60;99.90;;;;;;7399909;19;20173;-82
2022/12/22 13:48:40;;;;;;;1.47;0.93;;;12.60;99.90;;;;;;7397284;19;20209;-80
2022/12/22 13:51:13;;;;;;;3.05;1.25;;;12.60;99.90;;;;;;7398870;19;20526;-80
2022/12/22 13:53:42;;;;;;;1.98;0.85;;;12.70;99.90;;;;;;7398475;19;20567;-81
2022/12/22 13:56:14;;;;;;;1.00;0.63;;;12.70;99.90;;;;;;7394988;19;20138;-80
2022/12/22 13:58:44;;;;;;;1.53;0.70;;;12.80;99.90;;;;;;7398548;19;20142;-81
2022/12/22 14:01:09;;;;;;;2.03;1.08;;;12.80;99.90;;;;;;7395074;19;20194;-80
2022/12/22 14:03:57;;;;;;;1.30;0.90;;;12.70;99.90;;;;;;7396329;19;20171;-81
2022/12/22 14:06:37;;;;;;;3.35;1.00;;;12.70;99.90;;;;;;7392652;19;20142;-81
2022/12/22 14:09:29;;;;;;;1.95;0.93;;;12.80;99.90;;;;;;7395949;19;20138;-80
2022/12/22 14:12:00;;;;;;;2.60;0.80;;;12.70;99.90;;;;;;7395430;19;20222;-78
2022/12/22 14:14:34;;;;;;;1.33;0.80;;;12.70;99.90;;;;;;7391989;19;20158;-80
2022/12/22 14:17:00;;;;;;;2.07;0.70;;;12.70;99.90;;;;;;7395168;19;20146;-80
2022/12/22 14:19:31;;;;;;;3.15;0.70;;;12.90;99.90;;;;;;7395526;19;20155;-80
2022/12/22 14:22:07;;;;;;;3.45;0.85;;;12.80;99.90;;;;;;7397512;19;20713;-80
2022/12/22 14:24:45;;;;;;;1.02;0.60;;;12.70;99.90;;;;;;7393864;19;20232;-80
2022/12/22 14:27:22;;;;;;;1.43;0.70;;;12.70;99.90;;;;;;7398547;19;20130;-80
2022/12/22 14:29:49;;;;;;;1.60;0.88;;;12.70;99.90;;;;;;7396162;19;20149;-80
2022/12/22 14:32:35;;;;;;;3.30;0.80;;;12.60;99.90;;;;;;7390666;19;20134;-79
2022/12/22 14:35:01;;;;;;;1.55;0.75;;;12.70;99.90;;;;;;7394792;19;20138;-79
2022/12/22 14:37:27;;;;;;;1.48;0.80;;;12.70;99.90;;;;;;7389284;19;20140;-82
2022/12/22 14:39:56;;;;;;;5.13;1.10;;;12.70;99.90;;;;;;7389774;19;20972;-82
2022/12/22 14:42:22;;;;;;;2.70;1.40;;;12.50;99.90;;;;;;7392557;19;20628;-81
2022/12/22 14:44:48;;;;;;;2.47;1.23;;;12.50;99.90;;;;;;7396139;19;20682;-81
2022/12/22 14:47:17;;;;;;;3.97;1.45;;;12.40;99.90;;;;;;7394860;19;20573;-81
2022/12/22 14:49:52;;;;;;;4.30;1.23;;;12.50;99.90;;;;;;7394348;19;20139;-78
2022/12/22 14:52:34;;;;;;;4.88;1.10;;;12.50;99.90;;;;;;7397533;19;20497;-82
2022/12/22 14:55:03;;;;;;;5.30;1.90;;;12.60;99.90;;;;;;7397096;19;20138;-80
2022/12/22 14:57:41;;;;;;;3.65;1.00;;;12.60;99.90;;;;;;7398414;19;20138;-77
2022/12/22 15:00:27;;;;;;;5.93;1.65;;;12.50;99.90;;;;;;7394011;19;20142;-79
2022/12/22 15:02:56;;;;;;;5.15;1.60;;;12.50;99.90;;;;;;7397454;19;20130;-82
2022/12/22 15:05:36;;;;;;;6.50;2.37;;;12.60;99.90;;;;;;7393144;19;20170;-83
2022/12/22 15:08:03;;;;;;;3.28;1.05;;;12.50;99.90;;;;;;7394442;19;20156;-81
2022/12/22 15:10:43;;;;;;;4.68;1.30;;;12.40;99.90;;;;;;7392321;19;20137;-81
2022/12/22 15:13:17;;;;;;;5.45;1.50;;;12.40;99.90;;;;;;7393381;19;20152;-81
2022/12/22 15:15:43;;;;;;;6.90;1.55;;;12.40;99.90;;;;;;7391748;19;20130;-81
2022/12/22 15:18:13;;;;;;;2.78;1.20;;;12.30;99.90;;;;;;7394775;19;20139;-82
2022/12/22 15:20:38;;;;;;;2.77;1.20;;;12.30;99.90;;;;;;7381847;19;20134;-80
2022/12/22 15:23:11;;;;;;;4.82;1.48;;;12.30;99.90;;;;;;7389487;19;20169;-82
2022/12/22 15:25:37;;;;;;;3.70;1.45;;;12.30;99.90;;;;;;7386482;19;20474;-83
2022/12/22 15:28:02;;;;;;;8.05;1.30;;;12.40;99.90;;;;;;7388316;19;20132;-80
2022/12/22 15:30:28;;;;;;;8.23;2.17;;;12.40;99.90;;;;;;7391638;19;20154;-79
2022/12/22 15:32:55;;;;;;;5.13;1.37;;;12.30;99.90;;;;;;7382770;19;20146;-80
2022/12/22 15:35:30;;;;;;;4.25;1.30;;;12.20;99.90;;;;;;7393459;19;20174;-81
2022/12/22 15:37:56;;;;;;;5.60;1.75;;;12.30;99.90;;;;;;7395989;19;20149;-80
2022/12/22 15:40:23;;;;;;;3.70;1.50;;;12.20;99.90;;;;;;7395549;19;20118;-81
2022/12/22 15:42:50;;;;;;;5.80;1.70;;;12.20;99.90;;;;;;7393021;19;20130;-82
2022/12/22 15:45:19;;;;;;;6.55;1.90;;;12.30;99.90;;;;;;7393748;19;20127;-83
2022/12/22 15:47:50;;;;;;;5.83;1.70;;;12.20;99.90;;;;;;7394607;19;20205;-80
2022/12/22 15:50:35;;;;;;;4.67;1.87;;;12.10;99.90;;;;;;7400759;19;20135;-82
2022/12/22 15:53:03;;;;;;;5.10;1.80;;;12.00;99.90;;;;;;7394195;19;20134;-79
2022/12/22 15:55:29;;;;;;;4.53;1.50;;;11.90;99.90;;;;;;7400535;19;20490;-79
2022/12/22 15:57:57;;;;;;;3.47;1.13;;;12.00;99.90;;;;;;7398675;19;20163;-79
2022/12/22 16:00:23;;;;;;;4.63;1.70;;;11.90;99.90;;;;;;7399246;19;20150;-79
2022/12/22 16:02:49;;;;;;;5.03;1.25;;;11.90;99.90;;;;;;7393753;19;20142;-78
2022/12/22 16:05:16;;;;;;;1.98;1.00;;;11.90;99.90;;;;;;7392998;19;20170;-77
2022/12/22 16:07:43;;;;;;;2.90;1.30;;;11.90;99.90;;;;;;7395018;19;20131;-81
2022/12/22 16:10:27;;;;;;;3.80;1.70;;;11.90;99.90;;;;;;7395378;19;20614;-77
2022/12/22 16:12:59;;;;;;;4.38;1.58;;;11.90;99.90;;;;;;7394463;19;20146;-79
2022/12/22 16:15:34;;;;;;;3.07;1.50;;;12.00;99.90;;;;;;7399268;19;20130;-81
2022/12/22 16:18:02;;;;;;;3.15;1.33;;;11.90;99.90;;;;;;7401608;19;20138;-80
2022/12/22 16:20:30;;;;;;;4.30;1.75;;;11.80;99.90;;;;;;7396656;19;20139;-78
2022/12/22 16:22:56;;;;;;;3.67;1.70;;;11.80;99.90;;;;;;7396798;19;20210;-76
2022/12/22 16:25:28;;;;;;;3.93;1.93;;;11.90;99.90;;;;;;7395788;19;20672;-78
2022/12/22 16:27:54;;;;;;;7.28;2.10;;;12.00;99.90;;;;;;7394993;19;20135;-75
2022/12/22 16:30:27;;;;;;;6.67;1.80;;;11.90;99.90;;;;;;7396756;19;20157;-78
2022/12/22 16:32:52;;;;;;;6.90;2.47;;;12.10;99.90;;;;;;7399555;19;20134;-77
2022/12/22 16:35:21;;;;;;;4.37;1.53;;;12.00;99.90;;;;;;7394144;19;20135;-77
2022/12/22 16:37:48;;;;;;;5.87;1.50;;;12.00;99.90;;;;;;7396763;19;20206;-78
2022/12/22 16:40:15;;;;;;;4.53;1.63;;;12.10;99.90;;;;;;7399172;19;20130;-78
2022/12/22 16:42:47;;;;;;;6.07;1.60;;;11.70;99.90;;;;;;7388110;19;20141;-77
2022/12/22 16:45:19;;;;;;;5.67;2.00;;;12.00;99.90;;;;;;7394988;19;20131;-77